Columbus AFB, Mississippi
Current Conditions -  °F | °C
As of 3:45 PM on Friday 24 Oct 2014 (Local Time) from KGTR Reporting Station
Clear Clear  
Wind Chill: 75°   Ceiling: Unl
Heat Index: 75°   Visibility: 10mi
Dew Point: 43°   Wind: 9mph
Humidity: 31%   Direction: 340°NNW
Pressure: 30.07"   Gusts: NA
Location:  33.455°N, 88.5512°W
Report Text: KGTR 242045Z 34008KT 10SM SKC 24/06 A3007
Loading
Personal Weather Stations






























Interactive Weather Map
Tropical Storm Tracking
New forecast layout! Learn more

10-Day Weather Forecast

Advertisements
Track Severe Weather on mobile